sensor_id;sensor_type;location;lat;lon;timestamp;P1;durP1;ratioP1;P2;durP2;ratioP2
37945;SDS011;23769;52.478;13.448;2024-02-15T00:01:15;7.35;;;5.35;;
37945;SDS011;23769;52.478;13.448;2024-02-15T00:03:42;8.82;;;5.50;;
37945;SDS011;23769;52.478;13.448;2024-02-15T00:06:09;9.98;;;6.00;;
37945;SDS011;23769;52.478;13.448;2024-02-15T00:08:37;11.73;;;6.20;;
37945;SDS011;23769;52.478;13.448;2024-02-15T00:11:06;8.15;;;5.50;;
37945;SDS011;23769;52.478;13.448;2024-02-15T00:13:34;9.23;;;5.90;;
37945;SDS011;23769;52.478;13.448;2024-02-15T00:16:02;9.32;;;6.07;;
37945;SDS011;23769;52.478;13.448;2024-02-15T00:18:31;9.02;;;5.88;;
37945;SDS011;23769;52.478;13.448;2024-02-15T00:20:59;9.70;;;6.03;;
37945;SDS011;23769;52.478;13.448;2024-02-15T00:23:26;9.38;;;5.50;;
37945;SDS011;23769;52.478;13.448;2024-02-15T00:25:53;9.13;;;5.60;;
37945;SDS011;23769;52.478;13.448;2024-02-15T00:28:22;8.60;;;5.93;;
37945;SDS011;23769;52.478;13.448;2024-02-15T00:30:51;8.02;;;6.07;;
37945;SDS011;23769;52.478;13.448;2024-02-15T00:33:19;10.55;;;6.55;;
37945;SDS011;23769;52.478;13.448;2024-02-15T00:35:47;8.40;;;6.40;;
37945;SDS011;23769;52.478;13.448;2024-02-15T00:38:17;9.27;;;5.90;;
37945;SDS011;23769;52.478;13.448;2024-02-15T00:40:45;7.50;;;5.90;;
37945;SDS011;23769;52.478;13.448;2024-02-15T00:43:12;8.98;;;6.30;;
37945;SDS011;23769;52.478;13.448;2024-02-15T00:45:41;10.38;;;6.60;;
37945;SDS011;23769;52.478;13.448;2024-02-15T00:48:08;8.80;;;6.57;;
37945;SDS011;23769;52.478;13.448;2024-02-15T00:50:36;11.00;;;7.18;;
37945;SDS011;23769;52.478;13.448;2024-02-15T00:53:03;8.73;;;6.05;;
37945;SDS011;23769;52.478;13.448;2024-02-15T00:55:30;10.70;;;7.88;;
37945;SDS011;23769;52.478;13.448;2024-02-15T00:57:58;8.95;;;6.70;;
37945;SDS011;23769;52.478;13.448;2024-02-15T01:00:25;10.52;;;6.93;;
37945;SDS011;23769;52.478;13.448;2024-02-15T01:02:54;10.00;;;6.60;;
37945;SDS011;23769;52.478;13.448;2024-02-15T01:05:22;8.82;;;6.15;;
37945;SDS011;23769;52.478;13.448;2024-02-15T01:07:49;10.60;;;6.90;;
37945;SDS011;23769;52.478;13.448;2024-02-15T01:10:17;8.15;;;6.68;;
37945;SDS011;23769;52.478;13.448;2024-02-15T01:12:45;8.68;;;6.90;;
37945;SDS011;23769;52.478;13.448;2024-02-15T01:15:12;8.48;;;7.30;;
37945;SDS011;23769;52.478;13.448;2024-02-15T01:17:39;10.85;;;8.07;;
37945;SDS011;23769;52.478;13.448;2024-02-15T01:20:09;10.55;;;7.60;;
37945;SDS011;23769;52.478;13.448;2024-02-15T01:22:36;9.75;;;7.25;;
37945;SDS011;23769;52.478;13.448;2024-02-15T01:25:03;8.55;;;7.60;;
37945;SDS011;23769;52.478;13.448;2024-02-15T01:27:32;10.30;;;7.82;;
37945;SDS011;23769;52.478;13.448;2024-02-15T01:29:59;10.05;;;7.90;;
37945;SDS011;23769;52.478;13.448;2024-02-15T01:32:26;11.25;;;8.27;;
37945;SDS011;23769;52.478;13.448;2024-02-15T01:34:54;8.98;;;7.47;;
37945;SDS011;23769;52.478;13.448;2024-02-15T01:37:23;10.82;;;8.15;;
37945;SDS011;23769;52.478;13.448;2024-02-15T01:39:50;12.82;;;8.55;;
37945;SDS011;23769;52.478;13.448;2024-02-15T01:42:18;11.27;;;9.00;;
37945;SDS011;23769;52.478;13.448;2024-02-15T01:44:45;11.80;;;8.52;;
37945;SDS011;23769;52.478;13.448;2024-02-15T01:47:14;12.50;;;9.68;;
37945;SDS011;23769;52.478;13.448;2024-02-15T01:49:44;11.40;;;9.68;;
37945;SDS011;23769;52.478;13.448;2024-02-15T01:52:14;12.80;;;10.10;;
37945;SDS011;23769;52.478;13.448;2024-02-15T01:54:43;11.45;;;8.15;;
37945;SDS011;23769;52.478;13.448;2024-02-15T01:57:11;12.70;;;9.23;;
37945;SDS011;23769;52.478;13.448;2024-02-15T01:59:39;15.18;;;11.05;;
37945;SDS011;23769;52.478;13.448;2024-02-15T02:02:08;13.80;;;11.45;;
37945;SDS011;23769;52.478;13.448;2024-02-15T02:04:36;14.80;;;11.02;;
37945;SDS011;23769;52.478;13.448;2024-02-15T02:07:04;13.57;;;10.70;;
37945;SDS011;23769;52.478;13.448;2024-02-15T02:09:31;14.40;;;10.20;;
37945;SDS011;23769;52.478;13.448;2024-02-15T02:12:00;14.32;;;10.52;;
37945;SDS011;23769;52.478;13.448;2024-02-15T02:14:27;15.93;;;11.45;;
37945;SDS011;23769;52.478;13.448;2024-02-15T02:16:54;16.27;;;12.27;;
37945;SDS011;23769;52.478;13.448;2024-02-15T02:19:22;14.82;;;10.30;;
37945;SDS011;23769;52.478;13.448;2024-02-15T02:21:49;12.18;;;9.35;;
37945;SDS011;23769;52.478;13.448;2024-02-15T02:24:18;15.35;;;11.70;;
37945;SDS011;23769;52.478;13.448;2024-02-15T02:26:48;14.02;;;11.05;;
37945;SDS011;23769;52.478;13.448;2024-02-15T02:29:15;17.92;;;11.60;;
37945;SDS011;23769;52.478;13.448;2024-02-15T02:31:43;14.63;;;11.48;;
37945;SDS011;23769;52.478;13.448;2024-02-15T02:34:10;16.30;;;11.63;;
37945;SDS011;23769;52.478;13.448;2024-02-15T02:36:38;15.73;;;10.52;;
37945;SDS011;23769;52.478;13.448;2024-02-15T02:39:06;13.25;;;9.80;;
37945;SDS011;23769;52.478;13.448;2024-02-15T02:41:33;14.27;;;11.50;;
37945;SDS011;23769;52.478;13.448;2024-02-15T02:44:02;14.60;;;11.00;;
37945;SDS011;23769;52.478;13.448;2024-02-15T02:46:29;12.85;;;10.77;;
37945;SDS011;23769;52.478;13.448;2024-02-15T02:48:56;16.27;;;11.85;;
37945;SDS011;23769;52.478;13.448;2024-02-15T02:51:24;13.35;;;10.43;;
37945;SDS011;23769;52.478;13.448;2024-02-15T02:53:51;12.38;;;9.75;;
37945;SDS011;23769;52.478;13.448;2024-02-15T02:56:18;15.15;;;11.70;;
37945;SDS011;23769;52.478;13.448;2024-02-15T02:58:45;16.30;;;12.57;;
37945;SDS011;23769;52.478;13.448;2024-02-15T03:01:14;13.85;;;10.40;;
37945;SDS011;23769;52.478;13.448;2024-02-15T03:03:42;14.57;;;11.00;;
37945;SDS011;23769;52.478;13.448;2024-02-15T03:06:09;13.95;;;10.52;;
37945;SDS011;23769;52.478;13.448;2024-02-15T03:08:37;15.07;;;11.90;;
37945;SDS011;23769;52.478;13.448;2024-02-15T03:11:03;14.07;;;11.10;;
37945;SDS011;23769;52.478;13.448;2024-02-15T03:13:30;15.30;;;10.88;;
37945;SDS011;23769;52.478;13.448;2024-02-15T03:15:58;15.85;;;10.75;;
37945;SDS011;23769;52.478;13.448;2024-02-15T03:18:26;12.43;;;10.55;;
37945;SDS011;23769;52.478;13.448;2024-02-15T03:20:53;14.80;;;10.77;;
37945;SDS011;23769;52.478;13.448;2024-02-15T03:23:20;15.40;;;10.50;;
37945;SDS011;23769;52.478;13.448;2024-02-15T03:25:47;17.10;;;11.70;;
37945;SDS011;23769;52.478;13.448;2024-02-15T03:28:14;14.82;;;10.02;;
37945;SDS011;23769;52.478;13.448;2024-02-15T03:30:42;16.17;;;11.73;;
37945;SDS011;23769;52.478;13.448;2024-02-15T03:33:09;14.02;;;10.85;;
37945;SDS011;23769;52.478;13.448;2024-02-15T03:35:38;17.70;;;11.38;;
37945;SDS011;23769;52.478;13.448;2024-02-15T03:38:06;17.40;;;11.90;;
37945;SDS011;23769;52.478;13.448;2024-02-15T03:40:34;17.50;;;12.90;;
37945;SDS011;23769;52.478;13.448;2024-02-15T03:43:02;15.98;;;12.45;;
37945;SDS011;23769;52.478;13.448;2024-02-15T03:45:31;13.55;;;10.60;;
37945;SDS011;23769;52.478;13.448;2024-02-15T03:47:59;15.63;;;12.40;;
37945;SDS011;23769;52.478;13.448;2024-02-15T03:50:26;14.55;;;10.50;;
37945;SDS011;23769;52.478;13.448;2024-02-15T03:52:55;14.52;;;11.20;;
37945;SDS011;23769;52.478;13.448;2024-02-15T03:55:25;16.13;;;12.20;;
37945;SDS011;23769;52.478;13.448;2024-02-15T03:57:51;16.80;;;11.70;;
37945;SDS011;23769;52.478;13.448;2024-02-15T04:00:20;15.68;;;11.73;;
37945;SDS011;23769;52.478;13.448;2024-02-15T04:02:49;15.50;;;11.52;;
37945;SDS011;23769;52.478;13.448;2024-02-15T04:05:17;14.95;;;11.85;;
37945;SDS011;23769;52.478;13.448;2024-02-15T04:07:46;16.38;;;12.15;;
37945;SDS011;23769;52.478;13.448;2024-02-15T04:10:15;15.68;;;12.15;;
37945;SDS011;23769;52.478;13.448;2024-02-15T04:12:43;17.13;;;12.85;;
37945;SDS011;23769;52.478;13.448;2024-02-15T04:15:10;18.77;;;13.93;;
37945;SDS011;23769;52.478;13.448;2024-02-15T04:17:39;18.17;;;12.40;;
37945;SDS011;23769;52.478;13.448;2024-02-15T04:20:07;18.95;;;13.50;;
37945;SDS011;23769;52.478;13.448;2024-02-15T04:22:35;17.88;;;13.02;;
37945;SDS011;23769;52.478;13.448;2024-02-15T04:25:03;18.48;;;13.20;;
37945;SDS011;23769;52.478;13.448;2024-02-15T04:27:32;18.95;;;12.77;;
37945;SDS011;23769;52.478;13.448;2024-02-15T04:29:59;16.33;;;11.82;;
37945;SDS011;23769;52.478;13.448;2024-02-15T04:32:29;18.30;;;12.10;;
37945;SDS011;23769;52.478;13.448;2024-02-15T04:34:58;17.80;;;13.43;;
37945;SDS011;23769;52.478;13.448;2024-02-15T04:37:26;19.35;;;13.02;;
37945;SDS011;23769;52.478;13.448;2024-02-15T04:39:54;17.85;;;12.68;;
37945;SDS011;23769;52.478;13.448;2024-02-15T04:42:21;16.35;;;11.77;;
37945;SDS011;23769;52.478;13.448;2024-02-15T04:44:53;18.27;;;12.85;;
37945;SDS011;23769;52.478;13.448;2024-02-15T04:47:20;16.65;;;12.68;;
37945;SDS011;23769;52.478;13.448;2024-02-15T04:49:47;19.83;;;13.90;;
37945;SDS011;23769;52.478;13.448;2024-02-15T04:52:14;17.05;;;12.88;;
37945;SDS011;23769;52.478;13.448;2024-02-15T04:54:42;15.77;;;11.60;;
37945;SDS011;23769;52.478;13.448;2024-02-15T04:57:10;16.08;;;12.10;;
37945;SDS011;23769;52.478;13.448;2024-02-15T04:59:37;16.75;;;12.38;;
37945;SDS011;23769;52.478;13.448;2024-02-15T05:02:06;17.35;;;13.05;;
37945;SDS011;23769;52.478;13.448;2024-02-15T05:04:34;19.02;;;13.88;;
37945;SDS011;23769;52.478;13.448;2024-02-15T05:07:01;18.38;;;13.27;;
37945;SDS011;23769;52.478;13.448;2024-02-15T05:09:30;17.60;;;13.05;;
37945;SDS011;23769;52.478;13.448;2024-02-15T05:11:59;19.95;;;12.35;;
37945;SDS011;23769;52.478;13.448;2024-02-15T05:14:27;17.05;;;11.95;;
37945;SDS011;23769;52.478;13.448;2024-02-15T05:16:54;17.05;;;12.10;;
37945;SDS011;23769;52.478;13.448;2024-02-15T05:19:23;17.40;;;12.27;;
37945;SDS011;23769;52.478;13.448;2024-02-15T05:21:50;15.77;;;11.48;;
37945;SDS011;23769;52.478;13.448;2024-02-15T05:24:17;16.90;;;11.65;;
37945;SDS011;23769;52.478;13.448;2024-02-15T05:26:45;20.58;;;13.35;;
37945;SDS011;23769;52.478;13.448;2024-02-15T05:29:14;16.88;;;12.27;;
37945;SDS011;23769;52.478;13.448;2024-02-15T05:31:41;16.42;;;11.38;;
37945;SDS011;23769;52.478;13.448;2024-02-15T05:34:09;16.33;;;11.43;;
37945;SDS011;23769;52.478;13.448;2024-02-15T05:36:39;15.18;;;11.13;;
37945;SDS011;23769;52.478;13.448;2024-02-15T05:39:06;16.55;;;12.68;;
37945;SDS011;23769;52.478;13.448;2024-02-15T05:41:36;16.23;;;11.43;;
37945;SDS011;23769;52.478;13.448;2024-02-15T05:44:05;16.40;;;11.55;;
37945;SDS011;23769;52.478;13.448;2024-02-15T05:46:33;17.85;;;10.98;;
37945;SDS011;23769;52.478;13.448;2024-02-15T05:49:02;17.02;;;11.55;;
37945;SDS011;23769;52.478;13.448;2024-02-15T05:51:30;15.63;;;11.25;;
37945;SDS011;23769;52.478;13.448;2024-02-15T05:54:00;16.20;;;11.32;;
37945;SDS011;23769;52.478;13.448;2024-02-15T05:56:27;16.48;;;11.32;;
37945;SDS011;23769;52.478;13.448;2024-02-15T05:58:55;17.80;;;10.55;;
37945;SDS011;23769;52.478;13.448;2024-02-15T06:01:22;16.67;;;11.65;;
37945;SDS011;23769;52.478;13.448;2024-02-15T06:03:49;16.10;;;11.52;;
37945;SDS011;23769;52.478;13.448;2024-02-15T06:06:20;14.95;;;10.13;;
37945;SDS011;23769;52.478;13.448;2024-02-15T06:08:48;15.48;;;9.98;;
37945;SDS011;23769;52.478;13.448;2024-02-15T06:11:19;17.25;;;11.80;;
37945;SDS011;23769;52.478;13.448;2024-02-15T06:13:47;15.20;;;10.57;;
37945;SDS011;23769;52.478;13.448;2024-02-15T06:16:14;17.98;;;10.98;;
37945;SDS011;23769;52.478;13.448;2024-02-15T06:18:41;17.42;;;11.30;;
37945;SDS011;23769;52.478;13.448;2024-02-15T06:21:08;18.30;;;11.80;;
37945;SDS011;23769;52.478;13.448;2024-02-15T06:23:36;17.17;;;11.57;;
37945;SDS011;23769;52.478;13.448;2024-02-15T06:26:03;15.25;;;11.38;;
37945;SDS011;23769;52.478;13.448;2024-02-15T06:28:33;15.65;;;11.00;;
37945;SDS011;23769;52.478;13.448;2024-02-15T06:31:19;16.95;;;12.10;;
37945;SDS011;23769;52.478;13.448;2024-02-15T06:34:04;14.15;;;10.05;;
37945;SDS011;23769;52.478;13.448;2024-02-15T06:36:50;16.33;;;11.27;;
37945;SDS011;23769;52.478;13.448;2024-02-15T06:39:35;16.95;;;11.73;;
37945;SDS011;23769;52.478;13.448;2024-02-15T06:42:07;15.85;;;9.43;;
37945;SDS011;23769;52.478;13.448;2024-02-15T06:44:35;15.43;;;10.20;;
37945;SDS011;23769;52.478;13.448;2024-02-15T06:47:03;17.85;;;9.68;;
37945;SDS011;23769;52.478;13.448;2024-02-15T06:49:31;14.13;;;10.32;;
37945;SDS011;23769;52.478;13.448;2024-02-15T06:51:59;19.00;;;12.13;;
37945;SDS011;23769;52.478;13.448;2024-02-15T06:54:27;17.88;;;10.98;;
37945;SDS011;23769;52.478;13.448;2024-02-15T06:56:55;16.92;;;10.52;;
37945;SDS011;23769;52.478;13.448;2024-02-15T06:59:22;15.50;;;10.95;;
37945;SDS011;23769;52.478;13.448;2024-02-15T07:01:50;13.77;;;9.63;;
37945;SDS011;23769;52.478;13.448;2024-02-15T07:04:18;13.07;;;9.48;;
37945;SDS011;23769;52.478;13.448;2024-02-15T07:06:45;13.27;;;10.70;;
37945;SDS011;23769;52.478;13.448;2024-02-15T07:09:14;12.85;;;9.48;;
37945;SDS011;23769;52.478;13.448;2024-02-15T07:11:44;14.05;;;10.60;;
37945;SDS011;23769;52.478;13.448;2024-02-15T07:14:11;15.88;;;11.20;;
37945;SDS011;23769;52.478;13.448;2024-02-15T07:16:38;13.80;;;10.05;;
37945;SDS011;23769;52.478;13.448;2024-02-15T07:19:07;14.93;;;10.65;;
37945;SDS011;23769;52.478;13.448;2024-02-15T07:21:35;16.88;;;11.63;;
37945;SDS011;23769;52.478;13.448;2024-02-15T07:24:03;13.88;;;9.77;;
37945;SDS011;23769;52.478;13.448;2024-02-15T07:26:30;14.35;;;9.63;;
37945;SDS011;23769;52.478;13.448;2024-02-15T07:29:00;14.32;;;10.35;;
37945;SDS011;23769;52.478;13.448;2024-02-15T07:31:31;13.15;;;9.10;;
37945;SDS011;23769;52.478;13.448;2024-02-15T07:33:58;15.02;;;10.82;;
37945;SDS011;23769;52.478;13.448;2024-02-15T07:36:27;13.73;;;9.32;;
37945;SDS011;23769;52.478;13.448;2024-02-15T07:38:54;15.27;;;11.25;;
37945;SDS011;23769;52.478;13.448;2024-02-15T07:41:26;13.40;;;9.82;;
37945;SDS011;23769;52.478;13.448;2024-02-15T07:43:53;15.57;;;10.50;;
37945;SDS011;23769;52.478;13.448;2024-02-15T07:46:21;13.27;;;9.25;;
37945;SDS011;23769;52.478;13.448;2024-02-15T07:48:49;12.23;;;9.65;;
37945;SDS011;23769;52.478;13.448;2024-02-15T07:51:17;13.80;;;10.05;;
37945;SDS011;23769;52.478;13.448;2024-02-15T07:53:46;14.13;;;9.30;;
37945;SDS011;23769;52.478;13.448;2024-02-15T07:56:13;13.82;;;9.63;;
37945;SDS011;23769;52.478;13.448;2024-02-15T07:58:41;11.43;;;8.45;;
37945;SDS011;23769;52.478;13.448;2024-02-15T08:01:11;12.73;;;8.82;;
37945;SDS011;23769;52.478;13.448;2024-02-15T08:03:39;13.98;;;9.57;;
37945;SDS011;23769;52.478;13.448;2024-02-15T08:06:09;11.70;;;9.13;;
37945;SDS011;23769;52.478;13.448;2024-02-15T08:08:38;9.90;;;7.85;;
37945;SDS011;23769;52.478;13.448;2024-02-15T08:11:07;12.68;;;8.98;;
37945;SDS011;23769;52.478;13.448;2024-02-15T08:13:40;11.15;;;7.82;;
37945;SDS011;23769;52.478;13.448;2024-02-15T08:16:07;10.23;;;7.72;;
37945;SDS011;23769;52.478;13.448;2024-02-15T08:18:34;10.80;;;7.60;;
37945;SDS011;23769;52.478;13.448;2024-02-15T08:21:02;12.02;;;8.45;;
37945;SDS011;23769;52.478;13.448;2024-02-15T08:23:30;11.70;;;8.23;;
37945;SDS011;23769;52.478;13.448;2024-02-15T08:25:58;10.73;;;7.75;;
37945;SDS011;23769;52.478;13.448;2024-02-15T08:28:26;12.13;;;7.82;;
37945;SDS011;23769;52.478;13.448;2024-02-15T08:30:54;10.73;;;7.65;;
37945;SDS011;23769;52.478;13.448;2024-02-15T08:33:22;9.43;;;6.95;;
37945;SDS011;23769;52.478;13.448;2024-02-15T08:35:49;12.55;;;8.77;;
37945;SDS011;23769;52.478;13.448;2024-02-15T08:38:20;14.32;;;7.97;;
37945;SDS011;23769;52.478;13.448;2024-02-15T08:40:47;11.32;;;7.72;;
37945;SDS011;23769;52.478;13.448;2024-02-15T08:43:14;12.43;;;8.43;;
37945;SDS011;23769;52.478;13.448;2024-02-15T08:45:45;12.65;;;8.35;;
37945;SDS011;23769;52.478;13.448;2024-02-15T08:48:13;9.63;;;7.28;;
37945;SDS011;23769;52.478;13.448;2024-02-15T08:50:40;10.30;;;7.07;;
37945;SDS011;23769;52.478;13.448;2024-02-15T08:53:10;12.40;;;8.38;;
37945;SDS011;23769;52.478;13.448;2024-02-15T08:55:40;10.13;;;7.88;;
37945;SDS011;23769;52.478;13.448;2024-02-15T08:58:07;10.30;;;7.50;;
37945;SDS011;23769;52.478;13.448;2024-02-15T09:00:34;10.55;;;8.15;;
37945;SDS011;23769;52.478;13.448;2024-02-15T09:03:07;11.80;;;8.43;;
37945;SDS011;23769;52.478;13.448;2024-02-15T09:05:34;12.93;;;8.85;;
37945;SDS011;23769;52.478;13.448;2024-02-15T09:08:01;11.80;;;7.82;;
37945;SDS011;23769;52.478;13.448;2024-02-15T09:10:29;11.05;;;8.20;;
37945;SDS011;23769;52.478;13.448;2024-02-15T09:12:57;10.13;;;7.53;;
37945;SDS011;23769;52.478;13.448;2024-02-15T09:15:24;11.63;;;8.05;;
37945;SDS011;23769;52.478;13.448;2024-02-15T09:17:51;10.98;;;7.53;;
37945;SDS011;23769;52.478;13.448;2024-02-15T09:20:21;11.15;;;7.45;;
37945;SDS011;23769;52.478;13.448;2024-02-15T09:22:51;9.70;;;6.85;;
37945;SDS011;23769;52.478;13.448;2024-02-15T09:25:19;8.80;;;6.90;;
37945;SDS011;23769;52.478;13.448;2024-02-15T09:27:48;10.55;;;7.45;;
37945;SDS011;23769;52.478;13.448;2024-02-15T09:30:15;8.52;;;6.38;;
37945;SDS011;23769;52.478;13.448;2024-02-15T09:32:43;9.88;;;6.53;;
37945;SDS011;23769;52.478;13.448;2024-02-15T09:35:11;10.00;;;7.00;;
37945;SDS011;23769;52.478;13.448;2024-02-15T09:37:43;10.13;;;7.47;;
37945;SDS011;23769;52.478;13.448;2024-02-15T09:40:11;8.68;;;6.57;;
37945;SDS011;23769;52.478;13.448;2024-02-15T09:42:40;10.82;;;7.70;;
37945;SDS011;23769;52.478;13.448;2024-02-15T09:45:10;8.82;;;6.43;;
37945;SDS011;23769;52.478;13.448;2024-02-15T09:47:38;10.65;;;6.90;;
37945;SDS011;23769;52.478;13.448;2024-02-15T09:50:06;9.60;;;7.20;;
37945;SDS011;23769;52.478;13.448;2024-02-15T09:52:34;9.82;;;6.32;;
37945;SDS011;23769;52.478;13.448;2024-02-15T09:55:03;9.50;;;6.15;;
37945;SDS011;23769;52.478;13.448;2024-02-15T09:57:35;10.60;;;6.28;;
37945;SDS011;23769;52.478;13.448;2024-02-15T10:00:03;10.90;;;6.85;;
37945;SDS011;23769;52.478;13.448;2024-02-15T10:02:32;8.45;;;5.75;;
37945;SDS011;23769;52.478;13.448;2024-02-15T10:05:01;9.30;;;6.22;;
37945;SDS011;23769;52.478;13.448;2024-02-15T10:07:28;9.18;;;6.43;;
37945;SDS011;23769;52.478;13.448;2024-02-15T10:09:55;8.63;;;5.97;;
37945;SDS011;23769;52.478;13.448;2024-02-15T10:12:24;10.05;;;6.57;;
37945;SDS011;23769;52.478;13.448;2024-02-15T10:15:03;11.80;;;7.50;;
37945;SDS011;23769;52.478;13.448;2024-02-15T10:17:32;8.32;;;5.97;;
37945;SDS011;23769;52.478;13.448;2024-02-15T10:20:04;8.13;;;5.65;;
37945;SDS011;23769;52.478;13.448;2024-02-15T10:22:32;11.32;;;6.63;;
37945;SDS011;23769;52.478;13.448;2024-02-15T10:25:10;7.32;;;5.88;;
37945;SDS011;23769;52.478;13.448;2024-02-15T10:27:37;7.97;;;5.45;;
37945;SDS011;23769;52.478;13.448;2024-02-15T10:30:13;7.80;;;5.38;;
37945;SDS011;23769;52.478;13.448;2024-02-15T10:32:41;6.68;;;5.60;;
37945;SDS011;23769;52.478;13.448;2024-02-15T10:35:08;6.88;;;5.07;;
37945;SDS011;23769;52.478;13.448;2024-02-15T10:37:40;7.35;;;5.65;;
37945;SDS011;23769;52.478;13.448;2024-02-15T10:40:08;5.90;;;4.97;;
37945;SDS011;23769;52.478;13.448;2024-02-15T10:42:39;7.25;;;5.57;;
37945;SDS011;23769;52.478;13.448;2024-02-15T10:45:08;8.50;;;5.65;;
37945;SDS011;23769;52.478;13.448;2024-02-15T10:47:37;7.13;;;5.53;;
37945;SDS011;23769;52.478;13.448;2024-02-15T10:50:05;6.45;;;5.20;;
37945;SDS011;23769;52.478;13.448;2024-02-15T10:52:32;8.20;;;5.35;;
37945;SDS011;23769;52.478;13.448;2024-02-15T10:55:03;11.75;;;7.13;;
37945;SDS011;23769;52.478;13.448;2024-02-15T10:57:34;6.53;;;4.90;;
37945;SDS011;23769;52.478;13.448;2024-02-15T11:00:06;7.75;;;5.53;;
37945;SDS011;23769;52.478;13.448;2024-02-15T11:02:37;6.82;;;5.10;;
37945;SDS011;23769;52.478;13.448;2024-02-15T11:05:07;9.00;;;5.55;;
37945;SDS011;23769;52.478;13.448;2024-02-15T11:07:35;8.30;;;5.72;;
37945;SDS011;23769;52.478;13.448;2024-02-15T11:10:04;5.85;;;4.47;;
37945;SDS011;23769;52.478;13.448;2024-02-15T11:12:35;7.13;;;5.45;;
37945;SDS011;23769;52.478;13.448;2024-02-15T11:15:03;6.47;;;4.70;;
37945;SDS011;23769;52.478;13.448;2024-02-15T11:17:46;7.47;;;4.45;;
37945;SDS011;23769;52.478;13.448;2024-02-15T11:23:06;8.90;;;5.57;;
37945;SDS011;23769;52.478;13.448;2024-02-15T11:25:35;9.30;;;4.13;;
37945;SDS011;23769;52.478;13.448;2024-02-15T11:30:46;5.20;;;4.00;;
37945;SDS011;23769;52.478;13.448;2024-02-15T11:33:27;6.53;;;4.00;;
37945;SDS011;23769;52.478;13.448;2024-02-15T11:36:01;5.95;;;4.00;;
37945;SDS011;23769;52.478;13.448;2024-02-15T11:38:30;7.25;;;5.13;;
37945;SDS011;23769;52.478;13.448;2024-02-15T11:41:03;7.75;;;4.45;;
37945;SDS011;23769;52.478;13.448;2024-02-15T11:46:26;8.85;;;5.50;;
37945;SDS011;23769;52.478;13.448;2024-02-15T11:51:28;5.20;;;3.95;;
37945;SDS011;23769;52.478;13.448;2024-02-15T11:53:59;7.35;;;4.25;;
37945;SDS011;23769;52.478;13.448;2024-02-15T11:56:26;8.82;;;4.82;;
37945;SDS011;23769;52.478;13.448;2024-02-15T11:59:01;4.57;;;3.67;;
37945;SDS011;23769;52.478;13.448;2024-02-15T12:01:31;4.78;;;3.72;;
37945;SDS011;23769;52.478;13.448;2024-02-15T12:04:16;6.97;;;4.55;;
37945;SDS011;23769;52.478;13.448;2024-02-15T12:07:03;5.05;;;3.58;;
37945;SDS011;23769;52.478;13.448;2024-02-15T12:09:48;5.72;;;3.47;;
37945;SDS011;23769;52.478;13.448;2024-02-15T12:12:32;6.72;;;3.95;;
37945;SDS011;23769;52.478;13.448;2024-02-15T12:15:17;6.15;;;4.07;;
37945;SDS011;23769;52.478;13.448;2024-02-15T12:18:14;6.70;;;4.50;;
37945;SDS011;23769;52.478;13.448;2024-02-15T12:20:59;5.28;;;3.85;;
37945;SDS011;23769;52.478;13.448;2024-02-15T12:23:28;5.05;;;3.50;;
37945;SDS011;23769;52.478;13.448;2024-02-15T12:25:58;6.63;;;4.03;;
37945;SDS011;23769;52.478;13.448;2024-02-15T12:28:26;5.88;;;4.20;;
37945;SDS011;23769;52.478;13.448;2024-02-15T12:30:54;5.85;;;3.78;;
37945;SDS011;23769;52.478;13.448;2024-02-15T12:33:22;5.88;;;3.85;;
37945;SDS011;23769;52.478;13.448;2024-02-15T12:35:49;6.60;;;4.22;;
37945;SDS011;23769;52.478;13.448;2024-02-15T12:38:17;6.75;;;4.05;;
37945;SDS011;23769;52.478;13.448;2024-02-15T12:40:45;6.03;;;4.15;;
37945;SDS011;23769;52.478;13.448;2024-02-15T12:43:13;6.70;;;4.53;;
37945;SDS011;23769;52.478;13.448;2024-02-15T12:45:40;6.78;;;3.58;;
37945;SDS011;23769;52.478;13.448;2024-02-15T12:48:08;8.40;;;4.30;;
37945;SDS011;23769;52.478;13.448;2024-02-15T12:50:35;8.18;;;4.57;;
37945;SDS011;23769;52.478;13.448;2024-02-15T12:53:03;8.23;;;6.10;;
37945;SDS011;23769;52.478;13.448;2024-02-15T12:55:31;9.48;;;6.18;;
37945;SDS011;23769;52.478;13.448;2024-02-15T12:58:01;7.40;;;5.32;;
37945;SDS011;23769;52.478;13.448;2024-02-15T13:00:29;6.57;;;4.60;;
37945;SDS011;23769;52.478;13.448;2024-02-15T13:02:58;8.25;;;3.88;;
37945;SDS011;23769;52.478;13.448;2024-02-15T13:05:28;10.40;;;7.13;;
37945;SDS011;23769;52.478;13.448;2024-02-15T13:07:56;9.32;;;6.22;;
37945;SDS011;23769;52.478;13.448;2024-02-15T13:10:24;13.07;;;6.88;;
37945;SDS011;23769;52.478;13.448;2024-02-15T13:12:52;7.97;;;4.55;;
37945;SDS011;23769;52.478;13.448;2024-02-15T13:15:22;6.30;;;4.13;;
37945;SDS011;23769;52.478;13.448;2024-02-15T13:17:52;6.30;;;4.10;;
37945;SDS011;23769;52.478;13.448;2024-02-15T13:20:20;6.07;;;4.20;;
37945;SDS011;23769;52.478;13.448;2024-02-15T13:22:57;4.50;;;3.53;;
37945;SDS011;23769;52.478;13.448;2024-02-15T13:25:27;6.75;;;3.45;;
37945;SDS011;23769;52.478;13.448;2024-02-15T13:27:54;5.88;;;3.00;;
37945;SDS011;23769;52.478;13.448;2024-02-15T13:30:24;5.72;;;2.92;;
37945;SDS011;23769;52.478;13.448;2024-02-15T13:32:53;6.72;;;2.65;;
37945;SDS011;23769;52.478;13.448;2024-02-15T13:35:20;4.35;;;2.83;;
37945;SDS011;23769;52.478;13.448;2024-02-15T13:37:49;5.60;;;2.95;;
37945;SDS011;23769;52.478;13.448;2024-02-15T13:40:19;4.15;;;2.67;;
37945;SDS011;23769;52.478;13.448;2024-02-15T13:42:49;4.82;;;3.45;;
37945;SDS011;23769;52.478;13.448;2024-02-15T13:45:19;6.13;;;3.75;;
37945;SDS011;23769;52.478;13.448;2024-02-15T13:47:49;5.18;;;2.78;;
37945;SDS011;23769;52.478;13.448;2024-02-15T13:50:17;8.77;;;3.47;;
37945;SDS011;23769;52.478;13.448;2024-02-15T13:52:44;5.40;;;2.83;;
37945;SDS011;23769;52.478;13.448;2024-02-15T13:55:12;5.07;;;2.75;;
37945;SDS011;23769;52.478;13.448;2024-02-15T13:57:40;4.22;;;2.80;;
37945;SDS011;23769;52.478;13.448;2024-02-15T14:00:08;4.50;;;2.60;;
37945;SDS011;23769;52.478;13.448;2024-02-15T14:02:39;4.13;;;2.75;;
37945;SDS011;23769;52.478;13.448;2024-02-15T14:05:09;2.28;;;1.80;;
37945;SDS011;23769;52.478;13.448;2024-02-15T14:07:37;4.75;;;2.15;;
37945;SDS011;23769;52.478;13.448;2024-02-15T14:10:05;3.75;;;1.92;;
37945;SDS011;23769;52.478;13.448;2024-02-15T14:12:33;4.18;;;2.00;;
37945;SDS011;23769;52.478;13.448;2024-02-15T14:15:00;5.22;;;2.20;;
37945;SDS011;23769;52.478;13.448;2024-02-15T14:17:28;4.55;;;2.55;;
37945;SDS011;23769;52.478;13.448;2024-02-15T14:19:55;4.63;;;2.28;;
37945;SDS011;23769;52.478;13.448;2024-02-15T14:22:24;3.72;;;1.98;;
37945;SDS011;23769;52.478;13.448;2024-02-15T14:24:54;5.35;;;2.40;;
37945;SDS011;23769;52.478;13.448;2024-02-15T14:27:21;5.68;;;3.17;;
37945;SDS011;23769;52.478;13.448;2024-02-15T14:29:49;5.45;;;2.22;;
37945;SDS011;23769;52.478;13.448;2024-02-15T14:32:30;3.08;;;2.22;;
37945;SDS011;23769;52.478;13.448;2024-02-15T14:35:14;4.15;;;2.40;;
37945;SDS011;23769;52.478;13.448;2024-02-15T14:37:43;2.78;;;2.00;;
37945;SDS011;23769;52.478;13.448;2024-02-15T14:40:11;2.92;;;2.10;;
37945;SDS011;23769;52.478;13.448;2024-02-15T14:42:40;4.18;;;2.63;;